Accueil
METAR-TAF:

METAR-TAF

Aéroports :

Aéroport d'Ibaraki

Hyakuri, Japon

latitude: 36-11N, longitude: 140-25E, altitude: 32 m

Observation

Le bulletin a été fait il y a 59 minutes, à 21:00 UTC
Vent 3 kt de nord-ouest, variant entre ouest/nord-ouest et nord
Température -3°C
Humidité 74%
Pression 1022 hPa
Visibilité 10 km ou plus
Quelques nuages à une hauteur de 3000 ft

METAR: RJAH 272100Z 32003KT 290V360 9999 FEW030 M03/M07 Q1022

Heure: 06:59 (21:59 UTC)

Prévision

Le bulletin a été fait il y a 4 heures et 52 minutes, à 17:07 UTC
Prévision valable du 27 à 18 UTC au 29 à 00 UTC
Vent 6 kt de nord/nord-ouest
Visibilité 10 km ou plus
Quelques nuages à une hauteur de 3000 ft

TAF: RJAH 271707Z 2718/2900 34006KT 9999 FEW030

Observations et prévisions météorologiques de plus de 4000 aéroports (messages METAR et TAF).

Les stations disponibles sont représentées par des disques jaunes et rouges sur la carte.

Passer la souris dessus pour voir le nom de la station.

Cliquer dessus pour voir les observations et prévisions météorologiques.

Pour changer de carte: cliquez sur les boutons verts avec une croix noire pour zoomer, sur le bouton vert avec un tiret pour effectuer un zoom arrière, ou sur les flèches vertes pour les cartes adjacentes.


METAR-TAF: